createdAt,value
2019-05-26T00:00:29.121Z,0.0
2019-05-26T00:03:28.730Z,0.0
2019-05-26T00:06:28.284Z,0.0
2019-05-26T00:09:28.698Z,0.0
2019-05-26T00:12:34.578Z,0.0
2019-05-26T00:15:33.306Z,0.0
2019-05-26T00:18:28.134Z,0.0
2019-05-26T00:21:28.662Z,0.0
2019-05-26T00:24:28.494Z,0.0
2019-05-26T00:27:30.075Z,0.0
2019-05-26T00:30:33.640Z,0.0
2019-05-26T00:33:33.582Z,0.0
2019-05-26T00:36:28.315Z,0.0
2019-05-26T00:39:29.246Z,0.0
2019-05-26T00:42:28.556Z,0.0
2019-05-26T00:45:27.994Z,0.0
2019-05-26T00:48:28.861Z,0.0
2019-05-26T00:51:28.216Z,0.0
2019-05-26T00:54:30.037Z,0.0
2019-05-26T00:57:28.566Z,0.0
2019-05-26T01:00:41.340Z,0.0
2019-05-26T01:03:28.833Z,0.0
2019-05-26T01:06:28.352Z,0.0
2019-05-26T01:09:29.070Z,0.0
2019-05-26T01:12:28.518Z,0.0
2019-05-26T01:15:29.055Z,0.0
2019-05-26T01:18:30.048Z,0.0
2019-05-26T01:21:28.619Z,0.0
2019-05-26T01:24:28.131Z,0.0
2019-05-26T01:27:28.407Z,0.0
2019-05-26T01:30:37.846Z,0.0
2019-05-26T01:33:28.341Z,0.0
2019-05-26T01:36:28.976Z,0.0
2019-05-26T01:39:33.949Z,0.0
2019-05-26T01:42:28.508Z,0.0
2019-05-26T01:45:28.884Z,0.0
2019-05-26T01:48:28.100Z,0.0
2019-05-26T01:51:28.734Z,0.0
2019-05-26T01:54:28.076Z,0.0
2019-05-26T01:57:28.606Z,0.0
2019-05-26T02:00:28.430Z,0.0
2019-05-26T02:03:30.739Z,0.0
2019-05-26T02:06:29.744Z,0.0
2019-05-26T02:09:28.398Z,0.0
2019-05-26T02:12:28.700Z,0.0
2019-05-26T02:15:28.528Z,0.0
2019-05-26T02:18:28.217Z,0.0
2019-05-26T02:21:28.916Z,0.0
2019-05-26T02:24:28.151Z,0.0
2019-05-26T02:27:29.150Z,0.0
2019-05-26T02:30:28.871Z,0.0
2019-05-26T02:33:28.345Z,0.0
2019-05-26T02:36:29.424Z,0.0
2019-05-26T02:39:28.151Z,0.0
2019-05-26T02:42:33.548Z,0.0
2019-05-26T02:45:28.493Z,0.0
2019-05-26T02:48:29.549Z,0.0
2019-05-26T02:51:29.148Z,0.0
2019-05-26T02:54:28.790Z,0.0
2019-05-26T02:57:28.447Z,0.0
2019-05-26T03:00:43.550Z,0.0
2019-05-26T03:03:28.214Z,0.0
2019-05-26T03:06:30.331Z,0.0
2019-05-26T03:09:36.989Z,0.0
2019-05-26T03:12:43.006Z,0.0
2019-05-26T03:15:28.848Z,0.0
2019-05-26T03:18:32.561Z,0.0
2019-05-26T03:21:29.843Z,0.0
2019-05-26T03:24:30.962Z,0.0
2019-05-26T03:27:28.341Z,0.01
2019-05-26T03:30:33.174Z,0.01
2019-05-26T03:33:28.396Z,0.0
2019-05-26T03:36:29.097Z,0.0
2019-05-26T03:39:43.723Z,0.0
2019-05-26T03:42:28.304Z,0.02
2019-05-26T03:46:18.391Z,0.0
2019-05-26T03:48:28.257Z,0.03
2019-05-26T03:51:27.960Z,0.0
2019-05-26T03:54:28.333Z,0.03
2019-05-26T03:57:33.062Z,0.0
2019-05-26T04:00:29.784Z,0.0
2019-05-26T04:03:28.281Z,0.05
2019-05-26T04:06:28.570Z,0.01
2019-05-26T04:09:27.947Z,0.01
2019-05-26T04:12:28.328Z,0.06
2019-05-26T04:15:28.905Z,0.02
2019-05-26T04:18:28.261Z,0.07
2019-05-26T04:21:28.645Z,0.08
2019-05-26T04:24:28.147Z,0.04
2019-05-26T04:27:28.358Z,0.09
2019-05-26T04:30:28.816Z,0.09
2019-05-26T04:33:28.398Z,0.06
2019-05-26T04:36:45.033Z,0.11
2019-05-26T04:39:28.679Z,0.08
2019-05-26T04:42:33.050Z,0.1
2019-05-26T04:45:28.597Z,0.1
2019-05-26T04:48:28.519Z,0.11
2019-05-26T04:51:29.302Z,0.2
2019-05-26T04:54:28.902Z,0.23
2019-05-26T04:57:28.492Z,0.2
2019-05-26T05:00:28.503Z,0.26
2019-05-26T05:03:28.095Z,0.27
2019-05-26T05:06:30.355Z,0.34
2019-05-26T05:09:33.967Z,0.31
2019-05-26T05:12:28.781Z,0.28
2019-05-26T05:15:28.474Z,0.22
2019-05-26T05:18:27.987Z,0.3
2019-05-26T05:21:28.345Z,0.28
2019-05-26T05:24:28.664Z,0.22
2019-05-26T05:27:28.037Z,0.24
2019-05-26T05:30:28.519Z,0.36
2019-05-26T05:33:28.138Z,0.41
2019-05-26T05:36:28.646Z,0.28
2019-05-26T05:39:28.101Z,0.21
2019-05-26T05:42:28.441Z,0.28
2019-05-26T05:45:29.007Z,0.32
2019-05-26T05:48:33.452Z,0.3
2019-05-26T05:51:28.166Z,0.25
2019-05-26T05:54:28.745Z,0.29
2019-05-26T05:57:28.141Z,0.26
2019-05-26T06:00:28.766Z,0.3
2019-05-26T06:03:32.119Z,0.29
2019-05-26T06:06:28.637Z,0.3
2019-05-26T06:09:27.984Z,0.36
2019-05-26T06:12:28.424Z,0.36
2019-05-26T06:15:30.919Z,0.33
2019-05-26T06:18:28.874Z,0.32
2019-05-26T06:21:28.389Z,0.32
2019-05-26T06:24:28.895Z,0.33
2019-05-26T06:27:28.294Z,0.34
2019-05-26T06:30:28.809Z,0.38
2019-05-26T06:33:28.640Z,0.44
2019-05-26T06:36:28.387Z,0.47
2019-05-26T06:39:28.951Z,0.48
2019-05-26T06:42:28.388Z,0.49
2019-05-26T06:45:29.001Z,0.48
2019-05-26T06:48:28.483Z,0.52
2019-05-26T06:51:29.095Z,0.51
2019-05-26T06:54:28.674Z,0.5
2019-05-26T06:57:27.955Z,0.54
2019-05-26T07:00:28.802Z,0.61
2019-05-26T07:03:28.505Z,0.66
2019-05-26T07:06:29.057Z,0.65
2019-05-26T07:09:30.486Z,0.79
2019-05-26T07:12:28.130Z,0.96
2019-05-26T07:15:28.585Z,0.33
2019-05-26T07:18:28.078Z,0.0
2019-05-26T07:21:28.475Z,0.0
2019-05-26T07:24:29.608Z,0.26
2019-05-26T07:27:28.262Z,0.74
2019-05-26T07:30:28.700Z,0.0
2019-05-26T07:33:28.068Z,1.1
2019-05-26T07:36:28.803Z,1.68
2019-05-26T07:39:29.707Z,1.79
2019-05-26T07:42:28.384Z,1.0
2019-05-26T07:45:28.901Z,1.08
2019-05-26T07:48:28.476Z,0.32
2019-05-26T07:51:29.085Z,0.68
2019-05-26T07:57:28.620Z,1.3
2019-05-26T08:00:28.581Z,1.21
2019-05-26T08:03:28.183Z,0.79
2019-05-26T08:06:28.653Z,1.19
2019-05-26T08:09:28.125Z,1.62
2019-05-26T08:12:43.960Z,0.65
2019-05-26T08:15:28.535Z,0.18
2019-05-26T08:18:28.263Z,0.38
2019-05-26T08:21:30.005Z,0.4
2019-05-26T08:24:28.780Z,0.91
2019-05-26T08:27:28.586Z,1.49
2019-05-26T08:30:28.222Z,1.73
2019-05-26T08:33:29.317Z,1.92
2019-05-26T08:36:29.009Z,1.72
2019-05-26T08:39:28.807Z,1.65
2019-05-26T08:42:45.185Z,1.6
2019-05-26T08:45:28.819Z,1.56
2019-05-26T08:48:29.053Z,1.5
2019-05-26T08:51:28.340Z,1.52
2019-05-26T08:54:29.037Z,1.73
2019-05-26T08:57:28.590Z,1.5
2019-05-26T09:00:29.981Z,1.49
2019-05-26T09:03:28.686Z,1.59
2019-05-26T09:06:28.528Z,1.59
2019-05-26T09:09:28.330Z,1.69
2019-05-26T09:12:28.544Z,1.66
2019-05-26T09:15:28.885Z,1.65
2019-05-26T09:18:29.101Z,1.6
2019-05-26T09:21:29.293Z,1.62
2019-05-26T09:24:28.536Z,1.55
2019-05-26T09:27:28.947Z,1.64
2019-05-26T09:30:28.589Z,1.69
2019-05-26T09:33:28.791Z,1.88
2019-05-26T09:36:29.499Z,1.95
2019-05-26T09:39:28.987Z,2.09
2019-05-26T09:42:29.754Z,2.19
2019-05-26T09:45:29.412Z,1.29
2019-05-26T09:48:28.660Z,1.06
2019-05-26T09:51:28.881Z,1.64
2019-05-26T09:54:29.250Z,0.95
2019-05-26T09:57:29.620Z,2.07
2019-05-26T10:00:30.481Z,2.16
2019-05-26T10:03:28.969Z,2.05
2019-05-26T10:06:29.575Z,2.05
2019-05-26T10:09:29.375Z,2.21
2019-05-26T10:12:29.324Z,2.32
2019-05-26T10:15:29.122Z,2.15
2019-05-26T10:18:29.032Z,2.11
2019-05-26T10:21:29.010Z,2.27
2019-05-26T10:24:29.866Z,2.13
2019-05-26T10:27:29.785Z,2.21
2019-05-26T10:30:29.847Z,2.18
2019-05-26T10:33:30.614Z,2.08
2019-05-26T10:36:29.302Z,2.07
2019-05-26T10:39:29.576Z,1.82
2019-05-26T10:42:29.238Z,1.57
2019-05-26T10:45:29.173Z,2.34
2019-05-26T10:48:29.710Z,3.52
2019-05-26T10:51:29.527Z,1.14
2019-05-26T10:54:29.388Z,1.13
2019-05-26T11:03:29.788Z,1.14
2019-05-26T11:06:29.754Z,1.15
2019-05-26T11:09:29.589Z,0.89
2019-05-26T11:12:29.469Z,0.85
2019-05-26T11:15:29.224Z,0.83
2019-05-26T11:18:28.966Z,0.74
2019-05-26T11:21:29.647Z,0.77
2019-05-26T11:24:29.145Z,0.75
2019-05-26T11:27:29.218Z,0.68
2019-05-26T11:30:29.498Z,0.73
2019-05-26T11:33:30.479Z,0.73
2019-05-26T11:36:29.295Z,0.67
2019-05-26T11:39:29.306Z,0.66
2019-05-26T11:42:32.302Z,0.73
2019-05-26T11:45:28.883Z,0.67
2019-05-26T11:48:29.305Z,0.63
2019-05-26T11:51:28.313Z,0.64
2019-05-26T11:54:28.270Z,0.65
2019-05-26T11:57:28.259Z,0.56
2019-05-26T12:00:29.398Z,0.54
2019-05-26T12:03:28.996Z,0.54
2019-05-26T12:06:28.828Z,0.58
2019-05-26T12:09:28.486Z,0.59
2019-05-26T12:12:29.054Z,0.54
2019-05-26T12:15:28.844Z,0.62
2019-05-26T12:18:28.495Z,0.68
2019-05-26T12:21:29.022Z,0.59
2019-05-26T12:24:28.536Z,0.64
2019-05-26T12:27:28.077Z,0.63
2019-05-26T12:30:29.119Z,0.59
2019-05-26T12:33:28.987Z,0.62
2019-05-26T12:36:28.901Z,0.57
2019-05-26T12:39:33.484Z,0.6
2019-05-26T12:42:30.764Z,0.57
2019-05-26T12:45:28.429Z,0.52
2019-05-26T12:48:29.253Z,0.58
2019-05-26T12:51:28.913Z,0.5
2019-05-26T12:54:29.109Z,0.54
2019-05-26T12:57:28.503Z,0.54
2019-05-26T13:00:28.270Z,0.49
2019-05-26T13:03:28.913Z,0.53
2019-05-26T13:06:31.104Z,0.57
2019-05-26T13:09:28.565Z,0.54
2019-05-26T13:12:28.264Z,0.6
2019-05-26T13:15:33.874Z,0.51
2019-05-26T13:18:28.685Z,0.53
2019-05-26T13:21:27.973Z,0.48
2019-05-26T13:24:31.993Z,0.49
2019-05-26T13:27:28.461Z,0.47
2019-05-26T13:30:29.604Z,0.46
2019-05-26T13:33:28.032Z,0.41
2019-05-26T13:36:28.473Z,0.44
2019-05-26T13:39:29.172Z,0.46
2019-05-26T13:42:30.039Z,0.42
2019-05-26T13:45:36.509Z,0.49
2019-05-26T13:48:33.063Z,0.37
2019-05-26T13:51:30.387Z,0.46
2019-05-26T13:54:28.929Z,0.42
2019-05-26T13:57:28.658Z,0.39
2019-05-26T14:00:38.538Z,0.35
2019-05-26T14:03:28.334Z,0.45
2019-05-26T14:06:29.097Z,0.49
2019-05-26T14:09:28.959Z,0.46
2019-05-26T14:12:33.558Z,0.47
2019-05-26T14:15:37.303Z,0.42
2019-05-26T14:18:32.838Z,0.39
2019-05-26T14:21:28.441Z,0.37
2019-05-26T14:24:29.117Z,0.35
2019-05-26T14:27:28.678Z,0.38
2019-05-26T14:30:28.180Z,0.32
2019-05-26T14:33:30.172Z,0.35
2019-05-26T14:36:29.919Z,0.34
2019-05-26T14:39:29.702Z,0.28
2019-05-26T14:42:33.114Z,0.32
2019-05-26T14:45:29.152Z,0.26
2019-05-26T14:48:29.946Z,0.25
2019-05-26T14:51:29.335Z,0.25
2019-05-26T14:54:30.006Z,0.28
2019-05-26T14:57:30.982Z,0.23
2019-05-26T15:00:29.306Z,0.23
2019-05-26T15:03:28.840Z,0.22
2019-05-26T15:06:28.427Z,0.26
2019-05-26T15:09:40.295Z,0.26
2019-05-26T15:12:28.865Z,0.25
2019-05-26T15:15:28.429Z,0.21
2019-05-26T15:18:34.295Z,0.25
2019-05-26T15:21:31.401Z,0.2
2019-05-26T15:24:29.166Z,0.24
2019-05-26T15:27:28.821Z,0.24
2019-05-26T15:30:28.544Z,0.2
2019-05-26T15:33:28.422Z,0.2
2019-05-26T15:39:28.599Z,0.26
2019-05-26T15:42:33.148Z,0.28
2019-05-26T15:45:29.134Z,0.28
2019-05-26T15:48:28.622Z,0.25
2019-05-26T15:51:38.523Z,0.26
2019-05-26T15:54:28.145Z,0.21
2019-05-26T15:57:28.682Z,0.18
2019-05-26T16:00:28.920Z,0.17
2019-05-26T16:03:28.558Z,0.2
2019-05-26T16:06:28.158Z,0.15
2019-05-26T16:09:28.603Z,0.19
2019-05-26T16:12:28.466Z,0.2
2019-05-26T16:15:28.964Z,0.16
2019-05-26T16:18:28.497Z,0.16
2019-05-26T16:21:42.654Z,0.23
2019-05-26T16:24:28.090Z,0.18
2019-05-26T16:27:32.905Z,0.17
2019-05-26T16:30:28.718Z,0.23
2019-05-26T16:33:28.086Z,0.18
2019-05-26T16:36:28.454Z,0.14
2019-05-26T16:39:36.880Z,0.15
2019-05-26T16:42:28.071Z,0.2
2019-05-26T16:45:28.650Z,0.2
2019-05-26T16:48:28.156Z,0.17
2019-05-26T16:51:28.700Z,0.19
2019-05-26T16:54:28.233Z,0.13
2019-05-26T16:57:28.962Z,0.16
2019-05-26T17:00:28.732Z,0.17
2019-05-26T17:03:28.310Z,0.18
2019-05-26T17:06:29.032Z,0.13
2019-05-26T17:09:28.502Z,0.17
2019-05-26T17:12:28.512Z,0.11
2019-05-26T17:15:28.186Z,0.16
2019-05-26T17:18:28.964Z,0.14
2019-05-26T17:21:28.557Z,0.07
2019-05-26T17:24:28.287Z,0.09
2019-05-26T17:27:28.947Z,0.08
2019-05-26T17:30:28.850Z,0.03
2019-05-26T17:33:28.561Z,0.07
2019-05-26T17:36:28.104Z,0.06
2019-05-26T17:39:28.738Z,0.01
2019-05-26T17:42:28.278Z,0.05
2019-05-26T17:45:28.968Z,0.06
2019-05-26T17:48:28.636Z,0.08
2019-05-26T17:51:28.558Z,0.09
2019-05-26T17:54:28.225Z,0.1
2019-05-26T17:57:28.898Z,0.05
2019-05-26T18:00:28.575Z,0.04
2019-05-26T18:03:28.701Z,0.02
2019-05-26T18:06:28.462Z,0.05
2019-05-26T18:09:43.334Z,0.01
2019-05-26T18:12:29.152Z,0.0
2019-05-26T18:15:42.228Z,0.03
2019-05-26T18:18:56.850Z,0.03
2019-05-26T18:30:29.274Z,0.0
2019-05-26T18:33:29.021Z,0.0
2019-05-26T18:36:28.830Z,0.0
2019-05-26T18:39:28.470Z,0.02
2019-05-26T18:42:28.118Z,0.0
2019-05-26T18:45:28.775Z,0.0
2019-05-26T18:48:28.587Z,0.0
2019-05-26T18:51:28.075Z,0.0
2019-05-26T18:54:28.830Z,0.0
2019-05-26T18:57:28.307Z,0.0
2019-05-26T19:00:31.009Z,0.0
2019-05-26T19:03:29.053Z,0.0
2019-05-26T19:06:29.817Z,0.0
2019-05-26T19:09:28.631Z,0.0
2019-05-26T19:12:28.381Z,0.0
2019-05-26T19:15:29.025Z,0.0
2019-05-26T19:18:33.980Z,0.0
2019-05-26T19:33:29.601Z,0.0
2019-05-26T19:36:28.280Z,0.0
2019-05-26T19:39:33.930Z,0.0
2019-05-26T19:42:28.805Z,0.0
2019-05-26T19:45:28.615Z,0.0
2019-05-26T19:48:36.534Z,0.0
2019-05-26T19:51:28.702Z,0.0
2019-05-26T19:54:28.274Z,0.0
2019-05-26T19:57:30.865Z,0.0
2019-05-26T20:00:29.311Z,0.0
2019-05-26T20:03:29.542Z,0.0
2019-05-26T20:06:28.214Z,0.0
2019-05-26T20:09:31.764Z,0.0
2019-05-26T20:12:48.416Z,0.0
2019-05-26T20:15:28.968Z,0.0
2019-05-26T20:18:28.629Z,0.0
2019-05-26T20:21:28.274Z,0.0
2019-05-26T20:24:28.864Z,0.0
2019-05-26T20:27:28.414Z,0.0
2019-05-26T20:30:28.449Z,0.0
2019-05-26T20:33:28.957Z,0.0
2019-05-26T20:36:28.722Z,0.0
2019-05-26T20:39:28.373Z,0.0
2019-05-26T20:42:29.071Z,0.0
2019-05-26T20:45:28.766Z,0.0
2019-05-26T20:48:34.946Z,0.0
2019-05-26T20:51:28.818Z,0.0
2019-05-26T20:54:28.409Z,0.0
2019-05-26T20:57:29.060Z,0.0
2019-05-26T21:00:29.428Z,0.0
2019-05-26T21:03:28.931Z,0.0
2019-05-26T21:06:28.387Z,0.0
2019-05-26T21:09:29.545Z,0.0
2019-05-26T21:12:29.303Z,0.0
2019-05-26T21:15:29.825Z,0.0
2019-05-26T21:18:29.378Z,0.0
2019-05-26T21:21:29.205Z,0.0
2019-05-26T21:24:28.971Z,0.0
2019-05-26T21:27:29.224Z,0.0
2019-05-26T21:30:28.855Z,0.0
2019-05-26T21:33:28.986Z,0.0
2019-05-26T21:36:28.791Z,0.0
2019-05-26T21:39:29.056Z,0.0
2019-05-26T21:42:29.586Z,0.0
2019-05-26T21:45:28.745Z,0.0
2019-05-26T21:48:34.793Z,0.0
2019-05-26T21:51:29.163Z,0.0
2019-05-26T21:54:28.795Z,0.0
2019-05-26T21:57:28.517Z,0.0
2019-05-26T22:00:33.119Z,0.0
2019-05-26T22:03:29.179Z,0.0
2019-05-26T22:06:28.807Z,0.0
2019-05-26T22:09:28.605Z,0.0
2019-05-26T22:12:28.372Z,0.0
2019-05-26T22:15:28.963Z,0.0
2019-05-26T22:18:28.685Z,0.0
2019-05-26T22:21:28.319Z,0.0
2019-05-26T22:24:29.181Z,0.0
2019-05-26T22:27:28.964Z,0.0
2019-05-26T22:30:28.781Z,0.0
2019-05-26T22:33:28.564Z,0.0
2019-05-26T22:36:28.386Z,0.0
2019-05-26T22:39:28.963Z,0.0
2019-05-26T22:42:28.764Z,0.0
2019-05-26T22:45:28.567Z,0.0
2019-05-26T22:48:29.242Z,0.0
2019-05-26T22:51:28.830Z,0.0
2019-05-26T22:54:28.443Z,0.0
2019-05-26T22:57:28.928Z,0.0
2019-05-26T23:00:28.683Z,0.0
2019-05-26T23:03:28.426Z,0.0
2019-05-26T23:06:29.263Z,0.0
2019-05-26T23:09:29.044Z,0.0
2019-05-26T23:12:28.455Z,0.0
2019-05-26T23:15:29.193Z,0.0
2019-05-26T23:18:28.616Z,0.0
2019-05-26T23:21:33.258Z,0.0
2019-05-26T23:24:29.081Z,0.0
2019-05-26T23:27:29.063Z,0.0
2019-05-26T23:30:28.650Z,0.0
2019-05-26T23:33:28.277Z,0.0
2019-05-26T23:36:28.625Z,0.0
2019-05-26T23:39:28.165Z,0.0
2019-05-26T23:42:28.900Z,0.0
2019-05-26T23:45:28.732Z,0.0
2019-05-26T23:48:28.508Z,0.0
2019-05-26T23:51:29.114Z,0.0
2019-05-26T23:54:28.941Z,0.0
2019-05-26T23:57:28.716Z,0.0
